sensor_id;sensor_type;location;lat;lon;timestamp;temperature;humidity
4501;DHT22;2263;54.654;9.410;2022-11-15T00:01:09;8.70;89.50
4501;DHT22;2263;54.654;9.410;2022-11-15T00:03:36;8.70;89.50
4501;DHT22;2263;54.654;9.410;2022-11-15T00:06:04;8.70;89.50
4501;DHT22;2263;54.654;9.410;2022-11-15T00:08:32;8.70;89.50
4501;DHT22;2263;54.654;9.410;2022-11-15T00:11:01;8.70;89.50
4501;DHT22;2263;54.654;9.410;2022-11-15T00:13:29;8.70;89.40
4501;DHT22;2263;54.654;9.410;2022-11-15T00:15:58;8.60;89.50
4501;DHT22;2263;54.654;9.410;2022-11-15T00:18:27;8.60;89.30
4501;DHT22;2263;54.654;9.410;2022-11-15T00:20:54;8.60;89.40
4501;DHT22;2263;54.654;9.410;2022-11-15T00:23:21;8.60;89.30
4501;DHT22;2263;54.654;9.410;2022-11-15T00:25:56;8.60;89.50
4501;DHT22;2263;54.654;9.410;2022-11-15T00:28:25;8.60;89.50
4501;DHT22;2263;54.654;9.410;2022-11-15T00:30:52;8.60;89.70
4501;DHT22;2263;54.654;9.410;2022-11-15T00:33:19;8.60;89.50
4501;DHT22;2263;54.654;9.410;2022-11-15T00:35:46;8.60;89.40
4501;DHT22;2263;54.654;9.410;2022-11-15T00:38:13;8.50;89.50
4501;DHT22;2263;54.654;9.410;2022-11-15T00:40:41;8.50;89.40
4501;DHT22;2263;54.654;9.410;2022-11-15T00:43:08;8.50;89.50
4501;DHT22;2263;54.654;9.410;2022-11-15T00:45:35;8.50;89.70
4501;DHT22;2263;54.654;9.410;2022-11-15T00:48:03;8.50;89.60
4501;DHT22;2263;54.654;9.410;2022-11-15T00:50:30;8.50;89.50
4501;DHT22;2263;54.654;9.410;2022-11-15T00:52:57;8.50;89.50
4501;DHT22;2263;54.654;9.410;2022-11-15T00:55:24;8.50;89.60
4501;DHT22;2263;54.654;9.410;2022-11-15T00:57:51;8.50;89.60
4501;DHT22;2263;54.654;9.410;2022-11-15T01:00:18;8.50;89.60
4501;DHT22;2263;54.654;9.410;2022-11-15T01:02:46;8.40;89.60
4501;DHT22;2263;54.654;9.410;2022-11-15T01:05:13;8.40;89.70
4501;DHT22;2263;54.654;9.410;2022-11-15T01:07:40;8.40;89.60
4501;DHT22;2263;54.654;9.410;2022-11-15T01:10:07;8.50;89.70
4501;DHT22;2263;54.654;9.410;2022-11-15T01:12:35;8.40;89.60
4501;DHT22;2263;54.654;9.410;2022-11-15T01:15:03;8.40;89.70
4501;DHT22;2263;54.654;9.410;2022-11-15T01:17:30;8.40;89.70
4501;DHT22;2263;54.654;9.410;2022-11-15T01:19:58;8.40;89.70
4501;DHT22;2263;54.654;9.410;2022-11-15T01:22:25;8.40;89.80
4501;DHT22;2263;54.654;9.410;2022-11-15T01:24:52;8.40;89.80
4501;DHT22;2263;54.654;9.410;2022-11-15T01:27:19;8.40;89.80
4501;DHT22;2263;54.654;9.410;2022-11-15T01:29:46;8.40;89.80
4501;DHT22;2263;54.654;9.410;2022-11-15T01:32:14;8.40;90.00
4501;DHT22;2263;54.654;9.410;2022-11-15T01:34:41;8.40;89.90
4501;DHT22;2263;54.654;9.410;2022-11-15T01:37:08;8.40;90.00
4501;DHT22;2263;54.654;9.410;2022-11-15T01:39:35;8.40;90.10
4501;DHT22;2263;54.654;9.410;2022-11-15T01:42:02;8.40;90.10
4501;DHT22;2263;54.654;9.410;2022-11-15T01:44:50;8.40;90.10
4501;DHT22;2263;54.654;9.410;2022-11-15T01:47:30;8.40;90.20
4501;DHT22;2263;54.654;9.410;2022-11-15T01:50:02;8.40;90.20
4501;DHT22;2263;54.654;9.410;2022-11-15T01:52:32;8.40;90.10
4501;DHT22;2263;54.654;9.410;2022-11-15T01:55:17;8.40;90.20
4501;DHT22;2263;54.654;9.410;2022-11-15T01:57:47;8.40;90.20
4501;DHT22;2263;54.654;9.410;2022-11-15T02:00:17;8.40;90.20
4501;DHT22;2263;54.654;9.410;2022-11-15T02:02:44;8.40;90.20
4501;DHT22;2263;54.654;9.410;2022-11-15T02:05:12;8.40;90.20
4501;DHT22;2263;54.654;9.410;2022-11-15T02:07:39;8.40;90.20
4501;DHT22;2263;54.654;9.410;2022-11-15T02:10:10;8.40;90.50
4501;DHT22;2263;54.654;9.410;2022-11-15T02:12:37;8.40;90.30
4501;DHT22;2263;54.654;9.410;2022-11-15T02:15:06;8.40;90.30
4501;DHT22;2263;54.654;9.410;2022-11-15T02:21:07;8.40;90.30
4501;DHT22;2263;54.654;9.410;2022-11-15T02:29:12;8.40;90.40
4501;DHT22;2263;54.654;9.410;2022-11-15T02:31:44;8.40;90.40
4501;DHT22;2263;54.654;9.410;2022-11-15T02:42:19;8.40;90.40
4501;DHT22;2263;54.654;9.410;2022-11-15T02:45:09;8.40;90.40
4501;DHT22;2263;54.654;9.410;2022-11-15T02:47:43;8.40;90.40
4501;DHT22;2263;54.654;9.410;2022-11-15T02:50:16;8.40;90.50
4501;DHT22;2263;54.654;9.410;2022-11-15T02:52:48;8.40;90.50
4501;DHT22;2263;54.654;9.410;2022-11-15T02:55:33;8.40;90.50
4501;DHT22;2263;54.654;9.410;2022-11-15T03:00:59;8.40;90.50
4501;DHT22;2263;54.654;9.410;2022-11-15T03:03:46;8.30;90.50
4501;DHT22;2263;54.654;9.410;2022-11-15T03:06:42;8.30;90.50
4501;DHT22;2263;54.654;9.410;2022-11-15T03:09:42;8.40;90.60
4501;DHT22;2263;54.654;9.410;2022-11-15T03:15:38;8.40;90.60
4501;DHT22;2263;54.654;9.410;2022-11-15T03:20:40;8.40;90.50
4501;DHT22;2263;54.654;9.410;2022-11-15T03:23:10;8.40;90.60
4501;DHT22;2263;54.654;9.410;2022-11-15T03:25:41;8.40;90.50
4501;DHT22;2263;54.654;9.410;2022-11-15T03:28:12;8.40;90.60
4501;DHT22;2263;54.654;9.410;2022-11-15T03:30:41;8.30;90.60
4501;DHT22;2263;54.654;9.410;2022-11-15T03:33:09;8.40;90.50
4501;DHT22;2263;54.654;9.410;2022-11-15T03:35:40;8.40;90.50
4501;DHT22;2263;54.654;9.410;2022-11-15T03:38:26;8.30;90.50
4501;DHT22;2263;54.654;9.410;2022-11-15T03:41:01;8.30;90.50
4501;DHT22;2263;54.654;9.410;2022-11-15T03:43:44;8.30;90.50
4501;DHT22;2263;54.654;9.410;2022-11-15T03:46:17;8.30;90.50
4501;DHT22;2263;54.654;9.410;2022-11-15T03:48:50;8.30;90.50
4501;DHT22;2263;54.654;9.410;2022-11-15T03:51:19;8.30;90.50
4501;DHT22;2263;54.654;9.410;2022-11-15T03:53:46;8.30;90.50
4501;DHT22;2263;54.654;9.410;2022-11-15T03:56:14;8.30;90.40
4501;DHT22;2263;54.654;9.410;2022-11-15T03:58:41;8.20;90.40
4501;DHT22;2263;54.654;9.410;2022-11-15T04:01:08;8.20;90.40
4501;DHT22;2263;54.654;9.410;2022-11-15T04:03:35;8.20;90.30
4501;DHT22;2263;54.654;9.410;2022-11-15T04:06:02;8.20;90.40
4501;DHT22;2263;54.654;9.410;2022-11-15T04:08:29;8.20;90.30
4501;DHT22;2263;54.654;9.410;2022-11-15T04:10:56;8.20;90.30
4501;DHT22;2263;54.654;9.410;2022-11-15T04:13:24;8.20;90.30
4501;DHT22;2263;54.654;9.410;2022-11-15T04:15:51;8.20;90.30
4501;DHT22;2263;54.654;9.410;2022-11-15T04:18:19;8.10;90.30
4501;DHT22;2263;54.654;9.410;2022-11-15T04:20:46;8.10;90.30
4501;DHT22;2263;54.654;9.410;2022-11-15T04:23:31;8.20;90.30
4501;DHT22;2263;54.654;9.410;2022-11-15T04:26:33;8.10;90.30
4501;DHT22;2263;54.654;9.410;2022-11-15T04:29:01;8.10;90.30
4501;DHT22;2263;54.654;9.410;2022-11-15T04:31:46;8.10;90.20
4501;DHT22;2263;54.654;9.410;2022-11-15T04:34:13;8.10;90.20
4501;DHT22;2263;54.654;9.410;2022-11-15T04:36:40;8.10;90.20
4501;DHT22;2263;54.654;9.410;2022-11-15T04:39:26;8.10;90.10
4501;DHT22;2263;54.654;9.410;2022-11-15T04:41:53;8.00;90.10
4501;DHT22;2263;54.654;9.410;2022-11-15T04:44:20;8.00;90.10
4501;DHT22;2263;54.654;9.410;2022-11-15T04:46:47;8.00;90.10
4501;DHT22;2263;54.654;9.410;2022-11-15T04:49:14;8.00;90.10
4501;DHT22;2263;54.654;9.410;2022-11-15T04:51:42;8.00;90.10
4501;DHT22;2263;54.654;9.410;2022-11-15T04:54:09;8.00;90.10
4501;DHT22;2263;54.654;9.410;2022-11-15T04:56:36;8.00;90.10
4501;DHT22;2263;54.654;9.410;2022-11-15T04:59:03;7.90;90.00
4501;DHT22;2263;54.654;9.410;2022-11-15T05:01:30;8.00;90.10
4501;DHT22;2263;54.654;9.410;2022-11-15T05:03:58;7.90;90.10
4501;DHT22;2263;54.654;9.410;2022-11-15T05:06:43;7.90;90.10
4501;DHT22;2263;54.654;9.410;2022-11-15T05:09:10;7.90;90.00
4501;DHT22;2263;54.654;9.410;2022-11-15T05:11:40;7.90;90.10
4501;DHT22;2263;54.654;9.410;2022-11-15T05:14:07;7.90;90.00
4501;DHT22;2263;54.654;9.410;2022-11-15T05:16:35;7.90;90.00
4501;DHT22;2263;54.654;9.410;2022-11-15T05:19:02;7.80;90.00
4501;DHT22;2263;54.654;9.410;2022-11-15T05:21:30;7.90;90.00
4501;DHT22;2263;54.654;9.410;2022-11-15T05:23:58;7.80;90.00
4501;DHT22;2263;54.654;9.410;2022-11-15T05:26:26;7.80;90.00
4501;DHT22;2263;54.654;9.410;2022-11-15T05:28:54;7.80;90.00
4501;DHT22;2263;54.654;9.410;2022-11-15T05:31:22;7.80;90.00
4501;DHT22;2263;54.654;9.410;2022-11-15T05:33:51;7.80;90.00
4501;DHT22;2263;54.654;9.410;2022-11-15T05:36:33;7.80;90.00
4501;DHT22;2263;54.654;9.410;2022-11-15T05:39:02;7.80;90.00
4501;DHT22;2263;54.654;9.410;2022-11-15T05:41:51;7.80;90.00
4501;DHT22;2263;54.654;9.410;2022-11-15T05:44:22;7.80;89.90
4501;DHT22;2263;54.654;9.410;2022-11-15T05:46:50;7.80;89.90
4501;DHT22;2263;54.654;9.410;2022-11-15T05:49:23;7.70;90.10
4501;DHT22;2263;54.654;9.410;2022-11-15T05:51:51;7.80;89.80
4501;DHT22;2263;54.654;9.410;2022-11-15T05:54:22;7.80;89.70
4501;DHT22;2263;54.654;9.410;2022-11-15T05:56:50;7.80;90.10
4501;DHT22;2263;54.654;9.410;2022-11-15T05:59:18;7.70;89.60
4501;DHT22;2263;54.654;9.410;2022-11-15T06:01:45;7.70;89.50
4501;DHT22;2263;54.654;9.410;2022-11-15T06:04:13;7.70;89.70
4501;DHT22;2263;54.654;9.410;2022-11-15T06:06:40;7.70;89.60
4501;DHT22;2263;54.654;9.410;2022-11-15T06:09:07;7.70;89.70
4501;DHT22;2263;54.654;9.410;2022-11-15T06:11:34;7.70;89.70
4501;DHT22;2263;54.654;9.410;2022-11-15T06:14:02;7.70;89.60
4501;DHT22;2263;54.654;9.410;2022-11-15T06:16:29;7.70;89.70
4501;DHT22;2263;54.654;9.410;2022-11-15T06:18:56;7.70;89.70
4501;DHT22;2263;54.654;9.410;2022-11-15T06:21:23;7.70;89.70
4501;DHT22;2263;54.654;9.410;2022-11-15T06:23:50;7.70;90.10
4501;DHT22;2263;54.654;9.410;2022-11-15T06:26:18;7.70;89.70
4501;DHT22;2263;54.654;9.410;2022-11-15T06:28:45;7.70;89.60
4501;DHT22;2263;54.654;9.410;2022-11-15T06:31:12;7.70;89.60
4501;DHT22;2263;54.654;9.410;2022-11-15T06:33:39;7.70;89.60
4501;DHT22;2263;54.654;9.410;2022-11-15T06:36:11;7.70;89.60
4501;DHT22;2263;54.654;9.410;2022-11-15T06:38:44;7.70;89.60
4501;DHT22;2263;54.654;9.410;2022-11-15T06:41:12;7.70;89.70
4501;DHT22;2263;54.654;9.410;2022-11-15T06:43:40;7.70;89.80
4501;DHT22;2263;54.654;9.410;2022-11-15T06:46:08;7.60;89.70
4501;DHT22;2263;54.654;9.410;2022-11-15T06:48:35;7.70;89.90
4501;DHT22;2263;54.654;9.410;2022-11-15T06:51:05;7.70;89.90
4501;DHT22;2263;54.654;9.410;2022-11-15T06:53:33;7.60;89.80
4501;DHT22;2263;54.654;9.410;2022-11-15T06:56:03;7.70;89.90
4501;DHT22;2263;54.654;9.410;2022-11-15T06:58:30;7.70;90.00
4501;DHT22;2263;54.654;9.410;2022-11-15T07:01:08;7.70;90.00
4501;DHT22;2263;54.654;9.410;2022-11-15T07:03:40;7.70;90.00
4501;DHT22;2263;54.654;9.410;2022-11-15T07:06:08;7.70;90.10
4501;DHT22;2263;54.654;9.410;2022-11-15T07:08:36;7.70;90.10
4501;DHT22;2263;54.654;9.410;2022-11-15T07:11:05;7.70;90.10
4501;DHT22;2263;54.654;9.410;2022-11-15T07:13:34;7.70;90.10
4501;DHT22;2263;54.654;9.410;2022-11-15T07:16:07;7.70;90.20
4501;DHT22;2263;54.654;9.410;2022-11-15T07:18:38;7.70;90.10
4501;DHT22;2263;54.654;9.410;2022-11-15T07:21:09;7.70;90.10
4501;DHT22;2263;54.654;9.410;2022-11-15T07:23:37;7.70;90.20
4501;DHT22;2263;54.654;9.410;2022-11-15T07:26:06;7.70;90.20
4501;DHT22;2263;54.654;9.410;2022-11-15T07:28:34;7.70;90.20
4501;DHT22;2263;54.654;9.410;2022-11-15T07:31:03;7.70;90.20
4501;DHT22;2263;54.654;9.410;2022-11-15T07:33:31;7.70;90.30
4501;DHT22;2263;54.654;9.410;2022-11-15T07:36:04;7.70;90.30
4501;DHT22;2263;54.654;9.410;2022-11-15T07:38:33;7.70;90.30
4501;DHT22;2263;54.654;9.410;2022-11-15T07:41:08;7.70;90.40
4501;DHT22;2263;54.654;9.410;2022-11-15T07:43:36;7.70;90.40
4501;DHT22;2263;54.654;9.410;2022-11-15T07:46:07;7.70;90.30
4501;DHT22;2263;54.654;9.410;2022-11-15T07:48:37;7.70;90.30
4501;DHT22;2263;54.654;9.410;2022-11-15T07:51:15;7.70;90.40
4501;DHT22;2263;54.654;9.410;2022-11-15T07:53:46;7.70;90.40
4501;DHT22;2263;54.654;9.410;2022-11-15T07:56:13;7.70;90.40
4501;DHT22;2263;54.654;9.410;2022-11-15T07:58:41;7.70;90.40
4501;DHT22;2263;54.654;9.410;2022-11-15T08:01:09;7.70;90.50
4501;DHT22;2263;54.654;9.410;2022-11-15T08:03:37;7.70;90.50
4501;DHT22;2263;54.654;9.410;2022-11-15T08:06:04;7.70;90.50
4501;DHT22;2263;54.654;9.410;2022-11-15T08:08:32;7.70;90.50
4501;DHT22;2263;54.654;9.410;2022-11-15T08:10:59;7.70;90.60
4501;DHT22;2263;54.654;9.410;2022-11-15T08:13:26;7.80;90.60
4501;DHT22;2263;54.654;9.410;2022-11-15T08:16:01;7.80;90.60
4501;DHT22;2263;54.654;9.410;2022-11-15T08:18:29;7.80;90.60
4501;DHT22;2263;54.654;9.410;2022-11-15T08:21:00;7.80;90.70
4501;DHT22;2263;54.654;9.410;2022-11-15T08:23:28;7.80;90.70
4501;DHT22;2263;54.654;9.410;2022-11-15T08:26:01;7.80;90.70
4501;DHT22;2263;54.654;9.410;2022-11-15T08:28:30;7.70;90.70
4501;DHT22;2263;54.654;9.410;2022-11-15T08:30:57;7.80;90.80
4501;DHT22;2263;54.654;9.410;2022-11-15T08:33:24;7.80;90.90
4501;DHT22;2263;54.654;9.410;2022-11-15T08:35:51;7.70;90.70
4501;DHT22;2263;54.654;9.410;2022-11-15T08:38:18;7.80;90.80
4501;DHT22;2263;54.654;9.410;2022-11-15T08:40:45;7.80;90.90
4501;DHT22;2263;54.654;9.410;2022-11-15T08:43:13;7.80;91.10
4501;DHT22;2263;54.654;9.410;2022-11-15T08:45:40;7.80;91.00
4501;DHT22;2263;54.654;9.410;2022-11-15T08:48:07;7.70;90.90
4501;DHT22;2263;54.654;9.410;2022-11-15T08:50:34;7.80;90.90
4501;DHT22;2263;54.654;9.410;2022-11-15T08:53:08;7.70;91.00
4501;DHT22;2263;54.654;9.410;2022-11-15T08:55:39;7.80;91.00
4501;DHT22;2263;54.654;9.410;2022-11-15T08:58:06;7.80;91.00
4501;DHT22;2263;54.654;9.410;2022-11-15T09:00:33;7.80;91.10
4501;DHT22;2263;54.654;9.410;2022-11-15T09:03:04;7.80;91.10
4501;DHT22;2263;54.654;9.410;2022-11-15T09:05:32;7.80;91.10
4501;DHT22;2263;54.654;9.410;2022-11-15T09:07:59;7.80;91.10
4501;DHT22;2263;54.654;9.410;2022-11-15T09:10:27;7.80;91.10
4501;DHT22;2263;54.654;9.410;2022-11-15T09:12:57;7.80;91.10
4501;DHT22;2263;54.654;9.410;2022-11-15T09:15:24;7.80;91.20
4501;DHT22;2263;54.654;9.410;2022-11-15T09:17:51;7.80;91.20
4501;DHT22;2263;54.654;9.410;2022-11-15T09:20:18;7.80;91.20
4501;DHT22;2263;54.654;9.410;2022-11-15T09:22:46;7.80;91.20
4501;DHT22;2263;54.654;9.410;2022-11-15T09:25:13;7.80;91.40
4501;DHT22;2263;54.654;9.410;2022-11-15T09:27:40;7.80;91.40
4501;DHT22;2263;54.654;9.410;2022-11-15T09:30:25;7.80;91.40
4501;DHT22;2263;54.654;9.410;2022-11-15T09:32:52;7.90;91.40
4501;DHT22;2263;54.654;9.410;2022-11-15T09:35:19;7.80;91.40
4501;DHT22;2263;54.654;9.410;2022-11-15T09:37:46;7.90;91.40
4501;DHT22;2263;54.654;9.410;2022-11-15T09:40:21;7.90;91.50
4501;DHT22;2263;54.654;9.410;2022-11-15T09:50:49;7.90;91.50
4501;DHT22;2263;54.654;9.410;2022-11-15T09:53:51;7.90;91.50
4501;DHT22;2263;54.654;9.410;2022-11-15T09:56:42;7.90;91.80
4501;DHT22;2263;54.654;9.410;2022-11-15T10:04:40;8.00;91.80
4501;DHT22;2263;54.654;9.410;2022-11-15T10:12:39;8.00;91.80
4501;DHT22;2263;54.654;9.410;2022-11-15T10:15:14;8.00;92.30
4501;DHT22;2263;54.654;9.410;2022-11-15T10:20:57;8.00;92.20
4501;DHT22;2263;54.654;9.410;2022-11-15T10:23:23;8.00;92.20
4501;DHT22;2263;54.654;9.410;2022-11-15T10:26:00;8.00;92.30
4501;DHT22;2263;54.654;9.410;2022-11-15T10:28:32;8.00;92.30
4501;DHT22;2263;54.654;9.410;2022-11-15T10:31:00;8.00;92.50
4501;DHT22;2263;54.654;9.410;2022-11-15T10:33:38;8.00;92.50
4501;DHT22;2263;54.654;9.410;2022-11-15T10:41:21;8.10;92.50
4501;DHT22;2263;54.654;9.410;2022-11-15T10:46:35;8.10;92.70
4501;DHT22;2263;54.654;9.410;2022-11-15T10:49:20;8.10;92.70
4501;DHT22;2263;54.654;9.410;2022-11-15T10:54:47;8.10;92.90
4501;DHT22;2263;54.654;9.410;2022-11-15T10:57:23;8.10;92.90
4501;DHT22;2263;54.654;9.410;2022-11-15T10:59:56;8.10;92.90
4501;DHT22;2263;54.654;9.410;2022-11-15T11:02:37;8.10;92.70
4501;DHT22;2263;54.654;9.410;2022-11-15T11:05:34;8.10;92.70
4501;DHT22;2263;54.654;9.410;2022-11-15T11:10:58;8.20;92.80
4501;DHT22;2263;54.654;9.410;2022-11-15T11:13:31;8.20;92.80
4501;DHT22;2263;54.654;9.410;2022-11-15T11:46:23;8.30;93.80
4501;DHT22;2263;54.654;9.410;2022-11-15T11:48:59;8.30;93.60
4501;DHT22;2263;54.654;9.410;2022-11-15T11:51:42;8.30;93.40
4501;DHT22;2263;54.654;9.410;2022-11-15T11:54:20;8.30;93.50
4501;DHT22;2263;54.654;9.410;2022-11-15T11:56:48;8.30;93.70
4501;DHT22;2263;54.654;9.410;2022-11-15T12:02:31;8.30;93.70
4501;DHT22;2263;54.654;9.410;2022-11-15T12:05:22;8.30;93.60
4501;DHT22;2263;54.654;9.410;2022-11-15T12:07:51;8.30;93.60
4501;DHT22;2263;54.654;9.410;2022-11-15T12:10:24;8.30;93.50
4501;DHT22;2263;54.654;9.410;2022-11-15T12:13:04;8.30;93.50
4501;DHT22;2263;54.654;9.410;2022-11-15T12:15:39;8.30;93.60
4501;DHT22;2263;54.654;9.410;2022-11-15T12:18:12;8.30;93.80
4501;DHT22;2263;54.654;9.410;2022-11-15T12:20:49;8.30;93.60
4501;DHT22;2263;54.654;9.410;2022-11-15T12:23:26;8.30;93.70
4501;DHT22;2263;54.654;9.410;2022-11-15T12:26:03;8.30;93.70
4501;DHT22;2263;54.654;9.410;2022-11-15T12:34:01;8.30;93.90
4501;DHT22;2263;54.654;9.410;2022-11-15T12:36:45;8.30;93.80
4501;DHT22;2263;54.654;9.410;2022-11-15T12:39:13;8.30;93.90
4501;DHT22;2263;54.654;9.410;2022-11-15T12:41:44;8.40;94.00
4501;DHT22;2263;54.654;9.410;2022-11-15T13:00:02;8.40;93.90
4501;DHT22;2263;54.654;9.410;2022-11-15T13:02:41;8.40;94.00
4501;DHT22;2263;54.654;9.410;2022-11-15T13:17:47;8.40;94.00
4501;DHT22;2263;54.654;9.410;2022-11-15T13:27:53;8.50;94.20
4501;DHT22;2263;54.654;9.410;2022-11-15T13:30:30;8.50;94.20
4501;DHT22;2263;54.654;9.410;2022-11-15T13:33:07;8.50;94.40
4501;DHT22;2263;54.654;9.410;2022-11-15T13:35:38;8.50;94.40
4501;DHT22;2263;54.654;9.410;2022-11-15T13:38:17;8.50;94.50
4501;DHT22;2263;54.654;9.410;2022-11-15T13:40:45;8.50;94.60
4501;DHT22;2263;54.654;9.410;2022-11-15T13:46:15;8.60;94.80
4501;DHT22;2263;54.654;9.410;2022-11-15T13:48:43;8.60;94.90
4501;DHT22;2263;54.654;9.410;2022-11-15T13:54:02;8.60;94.60
4501;DHT22;2263;54.654;9.410;2022-11-15T13:56:31;8.60;94.70
4501;DHT22;2263;54.654;9.410;2022-11-15T13:58:58;8.60;94.70
4501;DHT22;2263;54.654;9.410;2022-11-15T14:01:28;8.60;94.80
4501;DHT22;2263;54.654;9.410;2022-11-15T14:03:59;8.60;94.90
4501;DHT22;2263;54.654;9.410;2022-11-15T14:06:29;8.60;94.80
4501;DHT22;2263;54.654;9.410;2022-11-15T14:11:30;8.70;94.80
4501;DHT22;2263;54.654;9.410;2022-11-15T14:14:19;8.60;94.80
4501;DHT22;2263;54.654;9.410;2022-11-15T14:16:50;8.70;95.00
4501;DHT22;2263;54.654;9.410;2022-11-15T14:25:57;8.70;95.10
4501;DHT22;2263;54.654;9.410;2022-11-15T14:30:54;8.70;95.00
4501;DHT22;2263;54.654;9.410;2022-11-15T14:33:33;8.70;95.10
4501;DHT22;2263;54.654;9.410;2022-11-15T14:36:05;8.70;95.20
4501;DHT22;2263;54.654;9.410;2022-11-15T14:38:32;8.70;95.20
4501;DHT22;2263;54.654;9.410;2022-11-15T14:41:00;8.70;95.10
4501;DHT22;2263;54.654;9.410;2022-11-15T14:43:27;8.70;95.10
4501;DHT22;2263;54.654;9.410;2022-11-15T14:45:54;8.70;95.10
4501;DHT22;2263;54.654;9.410;2022-11-15T14:48:22;8.70;95.10
4501;DHT22;2263;54.654;9.410;2022-11-15T14:50:49;8.70;95.20
4501;DHT22;2263;54.654;9.410;2022-11-15T14:53:17;8.70;95.20
4501;DHT22;2263;54.654;9.410;2022-11-15T14:55:45;8.70;95.10
4501;DHT22;2263;54.654;9.410;2022-11-15T14:58:12;8.70;95.10
4501;DHT22;2263;54.654;9.410;2022-11-15T15:00:41;8.80;95.40
4501;DHT22;2263;54.654;9.410;2022-11-15T15:03:08;8.80;95.40
4501;DHT22;2263;54.654;9.410;2022-11-15T15:05:39;8.80;95.50
4501;DHT22;2263;54.654;9.410;2022-11-15T15:08:07;8.80;95.30
4501;DHT22;2263;54.654;9.410;2022-11-15T15:10:39;8.80;95.80
4501;DHT22;2263;54.654;9.410;2022-11-15T15:13:18;8.80;95.40
4501;DHT22;2263;54.654;9.410;2022-11-15T15:15:46;8.80;95.30
4501;DHT22;2263;54.654;9.410;2022-11-15T15:18:14;8.80;95.70
4501;DHT22;2263;54.654;9.410;2022-11-15T15:20:44;8.80;95.60
4501;DHT22;2263;54.654;9.410;2022-11-15T15:23:17;8.90;95.90
4501;DHT22;2263;54.654;9.410;2022-11-15T15:25:46;8.90;95.60
4501;DHT22;2263;54.654;9.410;2022-11-15T15:28:15;8.90;95.80
4501;DHT22;2263;54.654;9.410;2022-11-15T15:30:42;8.90;95.60
4501;DHT22;2263;54.654;9.410;2022-11-15T15:33:09;8.90;95.90
4501;DHT22;2263;54.654;9.410;2022-11-15T15:35:36;8.90;95.90
4501;DHT22;2263;54.654;9.410;2022-11-15T15:38:05;8.90;95.80
4501;DHT22;2263;54.654;9.410;2022-11-15T15:40:33;8.90;95.80
4501;DHT22;2263;54.654;9.410;2022-11-15T15:43:00;8.90;95.70
4501;DHT22;2263;54.654;9.410;2022-11-15T15:45:27;8.90;95.50
4501;DHT22;2263;54.654;9.410;2022-11-15T15:47:55;8.90;95.40
4501;DHT22;2263;54.654;9.410;2022-11-15T15:52:51;8.90;95.40
4501;DHT22;2263;54.654;9.410;2022-11-15T15:55:19;8.90;95.40
4501;DHT22;2263;54.654;9.410;2022-11-15T15:57:47;8.90;95.30
4501;DHT22;2263;54.654;9.410;2022-11-15T16:00:15;9.00;95.40
4501;DHT22;2263;54.654;9.410;2022-11-15T16:02:43;9.00;95.60
4501;DHT22;2263;54.654;9.410;2022-11-15T16:05:11;9.00;95.70
4501;DHT22;2263;54.654;9.410;2022-11-15T16:07:39;9.00;95.40
4501;DHT22;2263;54.654;9.410;2022-11-15T16:10:33;9.00;95.60
4501;DHT22;2263;54.654;9.410;2022-11-15T16:13:01;9.10;96.10
4501;DHT22;2263;54.654;9.410;2022-11-15T16:15:30;9.10;95.80
4501;DHT22;2263;54.654;9.410;2022-11-15T16:17:59;9.20;95.90
4501;DHT22;2263;54.654;9.410;2022-11-15T16:23:05;9.20;95.70
4501;DHT22;2263;54.654;9.410;2022-11-15T16:25:47;9.20;95.50
4501;DHT22;2263;54.654;9.410;2022-11-15T16:28:27;9.20;95.60
4501;DHT22;2263;54.654;9.410;2022-11-15T16:31:08;9.20;95.50
4501;DHT22;2263;54.654;9.410;2022-11-15T16:33:35;9.30;95.70
4501;DHT22;2263;54.654;9.410;2022-11-15T16:36:18;9.30;95.60
4501;DHT22;2263;54.654;9.410;2022-11-15T16:38:52;9.30;95.60
4501;DHT22;2263;54.654;9.410;2022-11-15T16:41:20;9.30;95.40
4501;DHT22;2263;54.654;9.410;2022-11-15T16:43:48;9.30;95.40
4501;DHT22;2263;54.654;9.410;2022-11-15T16:46:19;9.30;95.50
4501;DHT22;2263;54.654;9.410;2022-11-15T16:48:47;9.30;95.40
4501;DHT22;2263;54.654;9.410;2022-11-15T16:51:15;9.30;95.40
4501;DHT22;2263;54.654;9.410;2022-11-15T16:53:43;9.30;95.30
4501;DHT22;2263;54.654;9.410;2022-11-15T16:56:25;9.30;95.30
4501;DHT22;2263;54.654;9.410;2022-11-15T16:58:54;9.40;95.40
4501;DHT22;2263;54.654;9.410;2022-11-15T17:01:26;9.40;95.40
4501;DHT22;2263;54.654;9.410;2022-11-15T17:03:54;9.40;95.30
4501;DHT22;2263;54.654;9.410;2022-11-15T17:06:23;9.40;95.30
4501;DHT22;2263;54.654;9.410;2022-11-15T17:08:51;9.40;95.10
4501;DHT22;2263;54.654;9.410;2022-11-15T17:11:21;9.40;95.20
4501;DHT22;2263;54.654;9.410;2022-11-15T17:13:49;9.40;95.20
4501;DHT22;2263;54.654;9.410;2022-11-15T17:16:17;9.40;95.10
4501;DHT22;2263;54.654;9.410;2022-11-15T17:18:44;9.40;95.10
4501;DHT22;2263;54.654;9.410;2022-11-15T17:21:18;9.40;95.10
4501;DHT22;2263;54.654;9.410;2022-11-15T17:23:46;9.40;95.00
4501;DHT22;2263;54.654;9.410;2022-11-15T17:26:14;9.40;94.90
4501;DHT22;2263;54.654;9.410;2022-11-15T17:29:02;9.40;94.80
4501;DHT22;2263;54.654;9.410;2022-11-15T17:31:30;9.40;94.90
4501;DHT22;2263;54.654;9.410;2022-11-15T17:34:00;9.40;95.00
4501;DHT22;2263;54.654;9.410;2022-11-15T17:36:28;9.50;95.00
4501;DHT22;2263;54.654;9.410;2022-11-15T17:38:56;9.40;95.10
4501;DHT22;2263;54.654;9.410;2022-11-15T17:41:26;9.50;94.90
4501;DHT22;2263;54.654;9.410;2022-11-15T17:43:57;9.40;94.90
4501;DHT22;2263;54.654;9.410;2022-11-15T17:46:27;9.50;94.90
4501;DHT22;2263;54.654;9.410;2022-11-15T17:48:55;9.50;95.00
4501;DHT22;2263;54.654;9.410;2022-11-15T17:51:23;9.50;94.90
4501;DHT22;2263;54.654;9.410;2022-11-15T17:53:50;9.50;95.10
4501;DHT22;2263;54.654;9.410;2022-11-15T17:56:22;9.50;95.00
4501;DHT22;2263;54.654;9.410;2022-11-15T17:58:55;9.50;95.10
4501;DHT22;2263;54.654;9.410;2022-11-15T18:01:30;9.50;95.20
4501;DHT22;2263;54.654;9.410;2022-11-15T18:03:58;9.50;95.10
4501;DHT22;2263;54.654;9.410;2022-11-15T18:06:28;9.50;95.10
4501;DHT22;2263;54.654;9.410;2022-11-15T18:08:59;9.50;95.10
4501;DHT22;2263;54.654;9.410;2022-11-15T18:11:38;9.50;95.10
4501;DHT22;2263;54.654;9.410;2022-11-15T18:14:08;9.50;95.30
4501;DHT22;2263;54.654;9.410;2022-11-15T18:16:36;9.50;95.20
4501;DHT22;2263;54.654;9.410;2022-11-15T18:19:04;9.50;95.20
4501;DHT22;2263;54.654;9.410;2022-11-15T18:21:40;9.50;95.10
4501;DHT22;2263;54.654;9.410;2022-11-15T18:24:34;9.50;95.10
4501;DHT22;2263;54.654;9.410;2022-11-15T18:27:04;9.50;95.40
4501;DHT22;2263;54.654;9.410;2022-11-15T18:29:31;9.50;95.10
4501;DHT22;2263;54.654;9.410;2022-11-15T18:32:00;9.50;95.30
4501;DHT22;2263;54.654;9.410;2022-11-15T18:34:31;9.50;95.50
4501;DHT22;2263;54.654;9.410;2022-11-15T18:37:00;9.50;95.50
4501;DHT22;2263;54.654;9.410;2022-11-15T18:39:29;9.60;95.40
4501;DHT22;2263;54.654;9.410;2022-11-15T18:41:56;9.50;95.70
4501;DHT22;2263;54.654;9.410;2022-11-15T18:44:24;9.60;95.50
4501;DHT22;2263;54.654;9.410;2022-11-15T18:46:51;9.60;95.70
4501;DHT22;2263;54.654;9.410;2022-11-15T18:49:18;9.60;95.70
4501;DHT22;2263;54.654;9.410;2022-11-15T18:51:46;9.60;95.80
4501;DHT22;2263;54.654;9.410;2022-11-15T18:54:14;9.60;95.80
4501;DHT22;2263;54.654;9.410;2022-11-15T18:56:42;9.60;95.70
4501;DHT22;2263;54.654;9.410;2022-11-15T18:59:10;9.60;95.50
4501;DHT22;2263;54.654;9.410;2022-11-15T19:01:41;9.60;95.50
4501;DHT22;2263;54.654;9.410;2022-11-15T19:04:13;9.60;95.40
4501;DHT22;2263;54.654;9.410;2022-11-15T19:06:42;9.60;95.50
4501;DHT22;2263;54.654;9.410;2022-11-15T19:09:12;9.60;95.50
4501;DHT22;2263;54.654;9.410;2022-11-15T19:11:43;9.60;95.50
4501;DHT22;2263;54.654;9.410;2022-11-15T19:14:14;9.60;95.40
4501;DHT22;2263;54.654;9.410;2022-11-15T19:16:46;9.60;95.40
4501;DHT22;2263;54.654;9.410;2022-11-15T19:19:23;9.60;95.50